LBWN - VARNA

Compiled: 17:29:13 on 20/10/2018

Latest METAR/SPECI Reports

METAR LBWN 201700Z 30007KT 270V330 CAVOK 17/11 Q1018 NOSIG=

Previous reports

METAR LBWN 201630Z 28006KT 240V320 CAVOK 17/11 Q1018 NOSIG=
METAR LBWN 201600Z 29006KT 260V330 CAVOK 17/09 Q1017 NOSIG=
METAR LBWN 201600Z 29006KT 260V330 CAVOK 17/09 Q1017 NOSIG=
METAR LBWN 201530Z 32007KT CAVOK 18/09 Q1017 NOSIG=

Latest TAF report

TAF LBWN 201700Z 2018/2118 30010KT 9999 SCT025 SCT040 TEMPO 2103/2106 SCT010 BECMG 2108/2110 01014KT PROB30 TEMPO 2111/2116 5000 SHRA FEW020CB BKN040=

Valid WARNINGS

No valid warnings for LBWN